Terminal Aerodrome Forecast
Issued by NWS

Home | Current Version | Previous Version | Text Only | Print | Product List | Glossary On
Versions: 1 2 3 4 5 6 7 8 9 10 11 12 13 14 15 16
000
FTUS43 KDLH 011506 AAA
TAFBRD
TAF AMD
KBRD 011506Z 0115/0212 29005KT P6SM SKC
     FM011800 27008KT P6SM SCT100
     FM020000 24003KT P6SM VCTS SCT050CB BKN150
     FM020500 VRB03KT P6SM FEW010 SCT100=

USA.gov is the U.S. government's official web portal to all federal, state and local government web resources and services.